»·PEaware :: EAL721 KSAN-KLAS

EAL721 :: KSAN-KLAS

FLIGHT INFORMATION

Flight Status: Arrived
Operator:
Eastern Air Lines
More flights by this operator :: More flights under this callsign
Pilot: Jack S. (366)
Aircraft: BOEING 727-100
(B721)
More flights by this aircraft type
Origin: KSAN San Diego Intl-Lindbergh
United States
Destination: KLAS McCarran Intl
United States
More flights between these airports :: More routes between these airports
Route: PEBLE6 SXC LAX DAG CLARR3
File this flight plan on PilotEdge
Remarks: EASTERN 721
Altitude:
(Current/Filed)
310ft
Speed:
(Current/Filed)
500kts
Departed: 08-Aug-18 12:15 PM
Arrived: 08-Aug-18 01:09 PM
Distance/Time
Traveled:
225nm/0:54
Distance/Time
To Go:
Arrived

Flight Plot

Page will automatically refresh every two minutes.

Flight plan parsing failed; only flown route is shown


Map Options




Map Legend


Flown Route
Filed Route
Departure Airport
Arrival Airport
Navaid (VOR, NDB)
Fix

Horizontal Profiles

Position Reports

Time Latitude Longitude Heading Altitude Ground
Speed
08-Aug-18 11:48 32.733274 -117.196038 199 25ft 0kts
08-Aug-18 11:49 32.733274 -117.196038 199 25ft 0kts
08-Aug-18 11:50 32.733274 -117.196038 199 25ft 0kts
08-Aug-18 11:51 32.733274 -117.196038 199 25ft 0kts
08-Aug-18 11:52 32.733274 -117.196038 199 25ft 0kts
08-Aug-18 11:53 32.733274 -117.196038 199 25ft 0kts
08-Aug-18 11:54 32.733274 -117.196038 199 25ft 0kts
08-Aug-18 11:55 32.733274 -117.196038 199 25ft 0kts
08-Aug-18 11:56 32.733274 -117.196038 199 25ft 0kts
08-Aug-18 11:57 32.733274 -117.196038 199 25ft 0kts
08-Aug-18 11:58 32.733274 -117.196038 199 25ft 0kts
08-Aug-18 11:59 32.733274 -117.196038 199 25ft 0kts
08-Aug-18 12:00 32.733274 -117.196038 199 25ft 0kts
08-Aug-18 12:01 32.733364 -117.196008 179 25ft 2kts
08-Aug-18 12:02 32.733652 -117.196443 94 25ft 0kts
08-Aug-18 12:03 32.733652 -117.196443 94 25ft 0kts
08-Aug-18 12:04 32.733652 -117.196443 94 25ft 0kts
08-Aug-18 12:05 32.733652 -117.196443 95 25ft 0kts
08-Aug-18 12:06 32.733652 -117.196443 95 25ft 0kts
08-Aug-18 12:07 32.733652 -117.196443 95 25ft 0kts
08-Aug-18 12:08 32.733652 -117.196443 95 25ft 0kts
08-Aug-18 12:09 32.733652 -117.196443 95 25ft 0kts
08-Aug-18 12:10 32.733652 -117.196443 95 25ft 0kts
08-Aug-18 12:11 32.733645 -117.196337 95 25ft 3kts
08-Aug-18 12:12 32.733404 -117.193555 99 25ft 13kts
08-Aug-18 12:13 32.732064 -117.187780 106 25ft 20kts
08-Aug-18 12:14 32.730341 -117.180695 105 22ft 24kts
08-Aug-18 12:15 32.729468 -117.176756 85 25ft 8kts
08-Aug-18 12:16 32.735605 -117.196943 288 250ft 174kts
08-Aug-18 12:17 32.758475 -117.256554 304 2645ft 261kts
08-Aug-18 12:18 32.803918 -117.329785 305 6327ft 286kts
08-Aug-18 12:19 32.850466 -117.408710 305 9828ft 299kts
08-Aug-18 12:20 32.906197 -117.491448 326 12083ft 340kts
08-Aug-18 12:21 32.983856 -117.556816 319 14759ft 359kts
08-Aug-18 12:22 33.053384 -117.645088 309 17374ft 371kts
08-Aug-18 12:23 33.108549 -117.727602 307 19483ft 375kts
08-Aug-18 12:24 33.172004 -117.823976 307 21444ft 385kts
08-Aug-18 12:25 33.219017 -117.935936 290 23014ft 397kts
08-Aug-18 12:26 33.259131 -118.059560 290 23065ft 395kts
08-Aug-18 12:27 33.297845 -118.179173 290 23074ft 377kts
08-Aug-18 12:28 33.334846 -118.293626 290 23084ft 375kts
08-Aug-18 12:29 33.386749 -118.406023 325 24040ft 403kts
08-Aug-18 12:30 33.489759 -118.423527 359 25367ft 412kts
08-Aug-18 12:31 33.603613 -118.424529 358 26708ft 420kts
08-Aug-18 12:32 33.719461 -118.426727 358 27916ft 427kts
08-Aug-18 12:33 33.823361 -118.428993 358 28884ft 433kts
08-Aug-18 12:34 33.942031 -118.431584 359 29870ft 439kts
08-Aug-18 12:35 34.036145 -118.357704 66 30620ft 447kts
08-Aug-18 12:36 34.072479 -118.218326 68 31038ft 458kts
08-Aug-18 12:37 34.130272 -118.083703 57 31023ft 478kts
08-Aug-18 12:38 34.198770 -117.955818 56 31044ft 485kts
08-Aug-18 12:39 34.273581 -117.819692 55 31074ft 492kts
08-Aug-18 12:40 34.349298 -117.681953 55 31069ft 499kts
08-Aug-18 12:41 34.426212 -117.541558 55 31063ft 505kts
08-Aug-18 12:42 34.502133 -117.398983 65 31039ft 509kts
08-Aug-18 12:43 34.547857 -117.244827 69 31054ft 509kts
08-Aug-18 12:44 34.597844 -117.087549 68 31053ft 507kts
08-Aug-18 12:45 34.648618 -116.929522 68 31053ft 506kts
08-Aug-18 12:46 34.699320 -116.771067 68 31058ft 486kts
08-Aug-18 12:47 34.745095 -116.627321 68 29620ft 456kts
08-Aug-18 12:48 34.789904 -116.485980 68 27567ft 441kts
08-Aug-18 12:49 34.880909 -116.407486 358 25461ft 427kts
08-Aug-18 12:50 34.990488 -116.443606 5 24342ft 412kts
08-Aug-18 12:51 35.094127 -116.398896 41 24111ft 403kts
08-Aug-18 12:52 35.168964 -116.313988 44 22710ft 406kts
08-Aug-18 12:53 35.243636 -116.220422 45 20827ft 396kts
08-Aug-18 12:54 35.318736 -116.124803 46 18908ft 386kts
08-Aug-18 12:55 35.391951 -116.031082 46 17045ft 377kts
08-Aug-18 12:56 35.460027 -115.943659 46 15051ft 325kts
08-Aug-18 12:57 35.522169 -115.863681 46 13023ft 316kts
08-Aug-18 12:58 35.584393 -115.783643 46 13033ft 346kts
08-Aug-18 12:59 35.647895 -115.702088 46 12980ft 274kts
08-Aug-18 13:00 35.691410 -115.621868 61 10043ft 328kts
08-Aug-18 13:01 35.735435 -115.526014 61 8995ft 305kts
08-Aug-18 13:02 35.792818 -115.455806 29 7759ft 301kts
08-Aug-18 13:03 35.864928 -115.407402 29 7052ft 291kts
08-Aug-18 13:04 35.934534 -115.372589 14 7005ft 263kts
08-Aug-18 13:05 36.004494 -115.351720 13 5992ft 262kts
08-Aug-18 13:06 36.056067 -115.312882 46 5086ft 186kts
08-Aug-18 13:07 36.071911 -115.264791 82 3882ft 148kts
08-Aug-18 13:08 36.073698 -115.215722 91 3181ft 142kts
08-Aug-18 13:09 36.073649 -115.167682 92 2285ft 134kts
08-Aug-18 13:10 36.073745 -115.137342 77 2123ft 22kts
08-Aug-18 13:11 36.074323 -115.135393 61 2123ft 0kts
08-Aug-18 13:12 36.076981 -115.133866 2 2123ft 20kts
08-Aug-18 13:13 36.080509 -115.138029 314 2123ft 12kts
08-Aug-18 13:14 36.080857 -115.138474 313 2123ft 0kts
08-Aug-18 13:15 36.080857 -115.138474 313 2123ft 0kts
08-Aug-18 13:16 36.080857 -115.138474 313 2123ft 0kts
08-Aug-18 13:17 36.080857 -115.138474 313 2123ft 0kts

Navigation Log

Ident Type
Flight plan parsing failed, navigation log unavailable